Time;durP1;ratioP1;P1;durP2;ratioP2;P2;SDS_P1;SDS_P2;PMS_P1;PMS_P2;Temp;Humidity;BMP_temperature;BMP_pressure;BME280_temperature;BME280_humidity;BME280_pressure;Samples;Min_cycle;Max_cycle;Signal;HPM_P1;HPM_P2
2022/02/24 00:00:11;;;;;;;13.25;7.65;;;7.40;99.10;;;;;;5050385;28;20072;-49
2022/02/24 00:02:36;;;;;;;12.55;7.53;;;7.40;99.00;;;;;;4998269;28;20037;-47
2022/02/24 00:05:03;;;;;;;11.98;6.90;;;7.40;99.00;;;;;;4967814;28;20086;-45
2022/02/24 00:07:28;;;;;;;11.98;7.22;;;7.50;98.90;;;;;;5034375;28;20041;-44
2022/02/24 00:09:54;;;;;;;11.05;6.25;;;7.50;98.90;;;;;;5023016;28;20085;-41
2022/02/24 00:12:20;;;;;;;11.65;6.30;;;7.50;98.90;;;;;;5069472;28;20025;-46
2022/02/24 00:14:46;;;;;;;17.67;9.25;;;7.40;98.90;;;;;;5073051;28;20078;-47
2022/02/24 00:17:12;;;;;;;17.90;8.25;;;7.40;98.90;;;;;;5071490;28;20024;-48
2022/02/24 00:19:38;;;;;;;12.38;6.13;;;7.40;99.00;;;;;;5070457;28;20032;-47
2022/02/24 00:22:04;;;;;;;18.02;8.60;;;7.30;98.90;;;;;;5015550;28;20041;-42
2022/02/24 00:24:30;;;;;;;13.00;7.82;;;7.20;99.10;;;;;;5072126;28;20083;-46
2022/02/24 00:26:56;;;;;;;12.15;6.80;;;7.20;99.20;;;;;;5070294;28;20059;-47
2022/02/24 00:29:22;;;;;;;14.57;7.30;;;7.10;99.20;;;;;;5018443;28;20089;-43
2022/02/24 00:31:47;;;;;;;17.88;12.15;;;7.10;99.20;;;;;;5066930;28;20044;-49
2022/02/24 00:34:15;;;;;;;9.95;7.05;;;7.10;99.30;;;;;;5066460;28;20025;-46
2022/02/24 00:36:44;;;;;;;11.98;5.90;;;7.10;99.30;;;;;;5066770;28;20388;-46
2022/02/24 00:39:10;;;;;;;12.20;7.18;;;7.10;99.30;;;;;;4991730;28;20040;-44
2022/02/24 00:41:36;;;;;;;8.85;5.68;;;7.20;99.30;;;;;;5069292;28;20029;-48
2022/02/24 00:44:02;;;;;;;9.13;5.35;;;7.20;99.30;;;;;;5015224;28;20040;-43
2022/02/24 00:46:28;;;;;;;8.90;5.20;;;7.20;99.20;;;;;;4989592;28;20128;-46
2022/02/24 00:48:54;;;;;;;11.18;5.00;;;7.20;99.20;;;;;;5061332;28;20397;-41
2022/02/24 00:51:20;;;;;;;9.75;5.53;;;7.20;99.20;;;;;;5017372;28;20040;-44
2022/02/24 00:53:45;;;;;;;9.23;5.60;;;7.10;99.30;;;;;;5065798;28;20047;-47
2022/02/24 00:56:11;;;;;;;8.35;5.13;;;7.10;99.30;;;;;;5065331;28;20090;-44
2022/02/24 00:58:38;;;;;;;9.68;5.30;;;7.10;99.20;;;;;;5064921;28;20044;-44
2022/02/24 01:01:03;;;;;;;8.93;5.38;;;7.10;99.20;;;;;;5068419;28;20086;-45
2022/02/24 01:03:30;;;;;;;10.57;6.07;;;7.10;99.30;;;;;;4997139;28;20051;-44
2022/02/24 01:05:55;;;;;;;7.07;5.20;;;7.10;99.30;;;;;;5071180;28;20473;-44
2022/02/24 01:08:21;;;;;;;9.80;5.28;;;7.10;99.30;;;;;;5036312;28;20036;-48
2022/02/24 01:10:47;;;;;;;7.57;4.90;;;7.10;99.40;;;;;;5019787;28;20033;-44
2022/02/24 01:13:13;;;;;;;10.55;5.15;;;7.10;99.30;;;;;;5017682;28;20102;-44
2022/02/24 01:15:42;;;;;;;9.73;5.13;;;7.10;99.30;;;;;;5072845;28;20029;-47
2022/02/24 01:18:08;;;;;;;9.07;5.10;;;7.10;99.30;;;;;;5067041;28;20033;-45
2022/02/24 01:20:34;;;;;;;12.20;5.38;;;7.00;99.30;;;;;;5061005;28;20060;-49
2022/02/24 01:23:00;;;;;;;10.43;5.53;;;7.10;99.20;;;;;;5068123;28;20036;-43
2022/02/24 01:25:26;;;;;;;7.75;5.00;;;7.10;99.20;;;;;;5062470;28;20052;-46
2022/02/24 01:27:52;;;;;;;8.43;4.97;;;7.10;99.10;;;;;;5060178;28;20021;-48
2022/02/24 01:30:19;;;;;;;11.38;5.88;;;7.10;99.10;;;;;;5071021;28;20032;-44
2022/02/24 01:32:45;;;;;;;8.93;5.50;;;7.10;99.00;;;;;;5065272;28;20036;-43
2022/02/24 01:35:11;;;;;;;9.63;5.20;;;7.10;99.00;;;;;;4986945;28;20386;-50
2022/02/24 01:37:37;;;;;;;8.38;4.97;;;7.10;99.10;;;;;;5023360;28;20046;-47
2022/02/24 01:40:04;;;;;;;8.90;6.40;;;7.00;99.10;;;;;;4972237;28;20050;-43
2022/02/24 01:42:30;;;;;;;8.50;5.28;;;7.00;99.10;;;;;;4990358;28;20497;-44
2022/02/24 01:44:56;;;;;;;9.85;5.47;;;7.00;99.10;;;;;;4979579;28;20048;-46
2022/02/24 01:47:22;;;;;;;8.75;4.93;;;7.00;99.10;;;;;;5014444;28;20029;-45
2022/02/24 01:49:48;;;;;;;36.65;33.90;;;6.90;99.20;;;;;;5022622;28;20568;-45
2022/02/24 01:52:14;;;;;;;8.07;5.15;;;6.90;99.20;;;;;;5025522;28;20064;-45
2022/02/24 01:54:41;;;;;;;196.48;177.93;;;6.90;99.20;;;;;;5023817;28;20084;-46
2022/02/24 01:57:07;;;;;;;280.15;261.08;;;6.90;99.20;;;;;;5026962;28;20037;-45
2022/02/24 01:59:34;;;;;;;9.85;5.13;;;6.90;99.40;;;;;;4991166;28;20124;-49
2022/02/24 02:02:00;;;;;;;333.05;306.02;;;6.90;99.10;;;;;;5020267;28;20041;-45
2022/02/24 02:04:26;;;;;;;392.80;357.30;;;6.90;99.20;;;;;;5019494;28;20048;-44
2022/02/24 02:06:53;;;;;;;577.10;526.63;;;6.90;99.20;;;;;;5056812;28;20041;-44
2022/02/24 02:09:20;;;;;;;629.50;576.33;;;6.90;99.30;;;;;;5072011;28;20035;-44
2022/02/24 02:11:46;;;;;;;478.73;433.58;;;6.90;99.20;;;;;;5067089;28;20059;-47
2022/02/24 02:14:13;;;;;;;290.10;265.75;;;6.90;99.10;;;;;;5032197;28;20041;-47
2022/02/24 02:16:49;;;;;;;82.03;71.88;;;6.90;99.10;;;;;;5064894;28;20111;-49
2022/02/24 02:19:16;;;;;;;100.63;89.65;;;6.90;99.10;;;;;;5013199;28;20041;-47
2022/02/24 02:21:43;;;;;;;628.70;583.08;;;6.80;99.20;;;;;;5062804;28;20025;-43
2022/02/24 02:24:09;;;;;;;78.03;61.70;;;6.60;99.50;;;;;;5066429;28;20036;-48
2022/02/24 02:26:35;;;;;;;9.13;4.95;;;6.40;99.90;;;;;;5066090;28;20047;-47
2022/02/24 02:29:03;;;;;;;8.15;4.68;;;6.40;99.90;;;;;;5069271;28;20120;-43
2022/02/24 02:31:29;;;;;;;12.75;6.97;;;6.30;99.90;;;;;;5061865;28;20361;-48
2022/02/24 02:34:12;;;;;;;56.22;46.58;;;5.90;99.90;;;;;;5029103;28;20040;-46
2022/02/24 02:36:39;;;;;;;64.75;59.08;;;5.90;99.90;;;;;;5063933;28;20040;-43
2022/02/24 02:39:10;;;;;;;7.43;4.93;;;5.80;99.90;;;;;;5068613;28;20048;-44
2022/02/24 02:41:37;;;;;;;8.60;5.10;;;5.80;99.90;;;;;;5064762;28;20078;-45
2022/02/24 02:44:03;;;;;;;47.25;35.95;;;5.70;99.90;;;;;;5063518;28;20262;-45
2022/02/24 02:46:29;;;;;;;37.55;19.00;;;5.70;99.90;;;;;;5066222;28;20028;-43
2022/02/24 02:48:55;;;;;;;10.07;5.10;;;5.80;99.90;;;;;;5070347;28;20024;-43
2022/02/24 02:51:21;;;;;;;12.45;5.75;;;5.80;99.90;;;;;;5007156;28;20505;-48
2022/02/24 02:53:47;;;;;;;12.02;6.30;;;5.60;99.90;;;;;;5074556;28;20025;-42
2022/02/24 02:56:13;;;;;;;11.20;6.22;;;5.70;99.90;;;;;;5015567;28;20044;-46
2022/02/24 02:58:39;;;;;;;27.27;16.20;;;5.80;99.90;;;;;;5030998;28;20056;-44
2022/02/24 03:01:05;;;;;;;489.08;440.58;;;5.80;99.90;;;;;;5066258;28;20028;-44
2022/02/24 03:03:31;;;;;;;10.75;6.03;;;5.80;99.90;;;;;;5011806;28;20044;-44
2022/02/24 03:05:57;;;;;;;17.25;11.15;;;5.50;99.90;;;;;;5069134;28;20038;-46
2022/02/24 03:08:23;;;;;;;72.15;63.95;;;5.60;99.90;;;;;;5062564;28;20040;-45
2022/02/24 03:10:50;;;;;;;344.27;317.77;;;5.50;99.90;;;;;;5062940;28;20087;-47
2022/02/24 03:13:16;;;;;;;617.78;563.50;;;5.40;99.90;;;;;;5066645;28;20032;-45
2022/02/24 03:15:42;;;;;;;40.00;36.10;;;5.30;99.90;;;;;;5069148;28;20411;-50
2022/02/24 03:18:08;;;;;;;595.63;545.78;;;5.50;99.90;;;;;;5072025;28;20419;-50
2022/02/24 03:20:34;;;;;;;685.88;627.28;;;5.30;99.90;;;;;;5064131;28;20063;-43
2022/02/24 03:23:01;;;;;;;715.45;648.90;;;5.10;99.90;;;;;;5067047;28;20063;-46
2022/02/24 03:25:30;;;;;;;726.75;659.85;;;5.20;99.90;;;;;;5060907;28;20049;-46
2022/02/24 03:27:56;;;;;;;716.38;666.13;;;5.20;99.90;;;;;;5061447;28;20379;-48
2022/02/24 03:30:23;;;;;;;745.53;695.05;;;5.10;99.90;;;;;;5067966;28;20029;-48
2022/02/24 03:32:50;;;;;;;764.70;697.13;;;5.00;99.90;;;;;;5070962;28;20025;-45
2022/02/24 03:35:17;;;;;;;749.08;681.70;;;5.00;99.90;;;;;;4995214;28;20038;-41
2022/02/24 03:37:43;;;;;;;636.10;572.70;;;5.10;99.90;;;;;;5011386;28;20054;-44
2022/02/24 03:40:11;;;;;;;719.60;652.63;;;5.00;99.90;;;;;;4987558;28;20045;-41
2022/02/24 03:42:37;;;;;;;715.20;648.40;;;5.10;99.90;;;;;;4970370;28;20034;-44
2022/02/24 03:45:05;;;;;;;767.28;697.88;;;5.30;99.90;;;;;;5012945;28;20048;-47
2022/02/24 03:47:31;;;;;;;683.27;617.80;;;5.50;99.90;;;;;;4989115;28;20081;-46
2022/02/24 03:49:57;;;;;;;628.90;565.57;;;5.50;99.90;;;;;;4974320;28;21405;-47
2022/02/24 03:52:22;;;;;;;719.65;656.08;;;5.50;99.90;;;;;;4967927;28;20038;-47
2022/02/24 03:54:49;;;;;;;606.37;540.97;;;5.70;99.90;;;;;;5011132;28;20042;-48
2022/02/24 03:57:15;;;;;;;672.57;606.33;;;5.70;99.90;;;;;;5006826;28;20056;-47
2022/02/24 03:59:44;;;;;;;215.50;192.02;;;5.70;99.90;;;;;;4983171;28;20516;-46
2022/02/24 04:02:11;;;;;;;38.67;23.23;;;5.50;99.90;;;;;;4955618;28;20117;-45
2022/02/24 04:04:37;;;;;;;26.50;15.60;;;5.30;99.90;;;;;;5004545;28;20093;-43
2022/02/24 04:07:04;;;;;;;545.47;490.43;;;4.90;99.90;;;;;;5053371;28;20040;-44
2022/02/24 04:09:30;;;;;;;675.80;611.20;;;4.60;99.90;;;;;;5015546;28;20041;-43
2022/02/24 04:11:56;;;;;;;652.10;588.93;;;4.70;99.90;;;;;;5023450;28;20055;-44
2022/02/24 04:14:23;;;;;;;736.45;670.67;;;4.50;99.90;;;;;;5076383;28;20107;-42
2022/02/24 04:16:49;;;;;;;30.02;14.88;;;4.80;99.90;;;;;;5072015;28;20041;-46
2022/02/24 04:19:14;;;;;;;37.65;18.38;;;4.80;99.90;;;;;;5064751;28;20033;-49
2022/02/24 04:21:41;;;;;;;55.50;24.30;;;4.60;99.90;;;;;;5011586;28;20550;-44
2022/02/24 04:24:07;;;;;;;67.20;30.98;;;4.60;99.90;;;;;;5066751;28;20024;-44
2022/02/24 04:26:33;;;;;;;410.13;373.17;;;4.60;99.90;;;;;;5033926;28;20046;-43
2022/02/24 04:29:00;;;;;;;742.20;671.27;;;4.90;99.90;;;;;;5062787;28;20055;-41
2022/02/24 04:31:27;;;;;;;541.08;491.15;;;5.00;99.90;;;;;;5066109;28;20036;-47
2022/02/24 04:33:52;;;;;;;346.30;313.25;;;5.10;99.90;;;;;;5064162;28;20039;-44
2022/02/24 04:36:18;;;;;;;618.50;516.43;;;5.10;99.90;;;;;;5036985;28;20124;-47
2022/02/24 04:38:44;;;;;;;414.07;339.37;;;4.80;99.90;;;;;;5028582;28;20036;-43
2022/02/24 04:41:10;;;;;;;596.37;532.57;;;4.70;99.90;;;;;;5066645;28;20024;-47
2022/02/24 04:43:36;;;;;;;658.03;591.63;;;4.30;99.90;;;;;;5066820;28;20033;-42
2022/02/24 04:46:02;;;;;;;688.20;619.97;;;4.30;99.90;;;;;;5054650;28;20579;-45
2022/02/24 04:48:28;;;;;;;422.30;378.25;;;4.50;99.90;;;;;;5057955;28;20040;-44
2022/02/24 04:50:54;;;;;;;552.92;497.00;;;4.60;99.90;;;;;;5070674;28;20040;-44
2022/02/24 04:53:20;;;;;;;100.38;86.07;;;4.30;99.90;;;;;;5073632;28;20025;-48
2022/02/24 04:55:46;;;;;;;36.90;19.50;;;4.00;99.90;;;;;;5018483;28;20389;-44
2022/02/24 04:58:12;;;;;;;47.65;25.63;;;3.70;99.90;;;;;;5066084;28;20024;-50
2022/02/24 05:00:38;;;;;;;663.80;603.80;;;3.90;99.90;;;;;;5069688;28;20040;-49
2022/02/24 05:03:04;;;;;;;738.90;675.60;;;3.80;99.90;;;;;;5066468;28;20376;-49
2022/02/24 05:05:30;;;;;;;540.13;490.20;;;3.70;99.90;;;;;;5066649;28;20036;-44
2022/02/24 05:07:56;;;;;;;719.28;665.75;;;3.60;99.90;;;;;;5045612;28;20043;-44
2022/02/24 05:10:22;;;;;;;716.47;664.92;;;;;;;;;;5071707;28;20036;-43
2022/02/24 05:12:50;;;;;;;239.88;221.65;;;;;;;;;;5063019;28;20086;-45
2022/02/24 05:15:16;;;;;;;95.78;86.82;;;;;;;;;;5017155;28;20051;-48
2022/02/24 05:17:42;;;;;;;13.23;8.35;;;;;;;;;;5074101;28;20028;-48
2022/02/24 05:20:09;;;;;;;20.25;18.38;;;;;;;;;;5067599;28;20048;-45
2022/02/24 05:22:39;;;;;;;18.77;10.07;;;;;;;;;;5071543;28;20119;-44
2022/02/24 05:25:06;;;;;;;27.38;17.55;;;;;;;;;;5063891;28;20079;-47
2022/02/24 05:27:32;;;;;;;250.80;220.50;;;;;;;;;;5061933;28;20021;-46
2022/02/24 05:29:58;;;;;;;567.85;513.85;;;;;;;;;;5022001;28;20533;-46
2022/02/24 05:32:24;;;;;;;281.40;163.23;;;;;;;;;;5013969;28;20044;-47
2022/02/24 05:34:50;;;;;;;554.72;497.35;;;;;;;;;;5021879;28;20065;-47
2022/02/24 05:37:17;;;;;;;20.10;14.02;;;;;;;;;;5023171;28;20037;-47
2022/02/24 05:39:43;;;;;;;24.33;13.18;;;;;;;;;;5067666;28;20082;-44
2022/02/24 05:42:09;;;;;;;15.65;11.00;;;;;;;;;;5064432;28;20036;-44
2022/02/24 05:44:36;;;;;;;14.73;9.48;;;;;;;;;;5070132;28;20036;-51
2022/02/24 05:47:02;;;;;;;30.08;18.15;;;;;;;;;;5068096;28;20028;-45
2022/02/24 05:49:28;;;;;;;23.80;14.07;;;;;;;;;;5020714;28;20041;-48
2022/02/24 05:51:54;;;;;;;21.23;10.35;;;;;;;;;;5060148;28;20039;-47
2022/02/24 05:54:20;;;;;;;12.80;8.10;;;;;;;;;;5069815;28;20032;-44
2022/02/24 05:56:47;;;;;;;10.20;7.10;;;;;;;;;;5075074;28;20043;-46
2022/02/24 05:59:13;;;;;;;16.52;9.57;;;;;;;;;;5062109;28;21062;-47
2022/02/24 06:01:39;;;;;;;16.65;10.52;;;;;;;;;;5005884;28;20056;-43
2022/02/24 06:04:05;;;;;;;16.27;9.13;;;;;;;;;;5014825;28;20044;-45
2022/02/24 06:06:31;;;;;;;11.40;8.07;;;;;;;;;;5073786;28;20416;-48
2022/02/24 06:08:57;;;;;;;12.93;7.90;;;8.50;99.90;;;;;;5014593;28;20051;-47
2022/02/24 06:11:23;;;;;;;13.00;8.07;;;9.40;99.90;;;;;;5048939;28;20048;-45
2022/02/24 06:13:49;;;;;;;13.57;8.60;;;10.50;99.90;;;;;;5076221;28;20124;-45
2022/02/24 06:16:15;;;;;;;11.88;7.70;;;;;;;;;;5067913;28;20051;-44
2022/02/24 06:18:41;;;;;;;16.65;9.25;;;13.30;99.50;;;;;;5027292;28;20037;-44
2022/02/24 06:21:07;;;;;;;18.33;10.07;;;12.40;95.30;;;;;;5066724;28;20119;-41
2022/02/24 06:23:33;;;;;;;15.75;9.68;;;11.70;95.00;;;;;;5022310;28;20119;-45
2022/02/24 06:25:59;;;;;;;670.53;611.28;;;13.40;96.30;;;;;;5072585;28;20062;-45
2022/02/24 06:28:26;;;;;;;11.18;8.05;;;13.40;94.10;;;;;;5015235;28;20045;-48
2022/02/24 06:30:52;;;;;;;10.38;5.97;;;;;;;;;;4966865;28;20039;-46
2022/02/24 06:33:17;;;;;;;16.63;7.20;;;12.50;99.90;;;;;;5012573;28;20036;-51
2022/02/24 06:35:43;;;;;;;11.73;8.13;;;11.60;99.90;;;;;;5010117;28;20037;-45
2022/02/24 06:38:11;;;;;;;17.45;11.65;;;;;;;;;;5020036;28;20033;-45
2022/02/24 06:40:37;;;;;;;15.93;8.57;;;14.30;95.40;;;;;;5062593;28;20160;-47
2022/02/24 06:43:03;;;;;;;12.93;7.85;;;13.20;92.90;;;;;;5059751;28;20212;-46
2022/02/24 06:45:29;;;;;;;12.50;7.43;;;13.20;93.10;;;;;;4968674;28;20135;-47
2022/02/24 06:47:55;;;;;;;11.57;6.00;;;12.40;93.80;;;;;;5028825;28;20436;-45
2022/02/24 06:50:21;;;;;;;11.93;8.02;;;12.10;94.10;;;;;;4992089;28;20036;-47
2022/02/24 06:52:47;;;;;;;11.85;6.70;;;14.90;93.80;;;;;;5014099;28;20032;-47
2022/02/24 06:55:13;;;;;;;12.25;6.30;;;15.00;95.00;;;;;;5064547;28;20029;-45
2022/02/24 06:57:57;;;;;;;10.90;6.43;;;;;;;;;;5063946;28;20082;-48
2022/02/24 07:00:23;;;;;;;10.93;6.78;;;19.20;99.90;;;;;;5014510;28;20044;-48
2022/02/24 07:02:49;;;;;;;12.27;7.75;;;;;;;;;;5008713;28;20503;-48
2022/02/24 07:05:15;;;;;;;16.02;9.93;;;21.50;85.30;;;;;;5058980;28;20547;-47
2022/02/24 07:07:41;;;;;;;18.75;11.05;;;;;;;;;;4998683;28;20036;-45
2022/02/24 07:10:11;;;;;;;19.85;12.70;;;23.30;80.30;;;;;;5060624;28;20464;-47
2022/02/24 07:12:38;;;;;;;24.25;13.98;;;;;;;;;;5062104;28;20146;-49
2022/02/24 07:15:05;;;;;;;21.10;12.38;;;;;;;;;;5032816;28;20041;-47
2022/02/24 07:17:31;;;;;;;15.15;8.73;;;20.90;75.60;;;;;;5062325;28;20051;-53
2022/02/24 07:19:57;;;;;;;11.60;8.43;;;;;;;;;;5000091;28;20384;-46
2022/02/24 07:22:24;;;;;;;17.05;9.32;;;;;;;;;;5063229;28;20035;-47
2022/02/24 07:24:50;;;;;;;14.30;9.10;;;;;;;;;;5007032;28;20133;-49
2022/02/24 07:27:16;;;;;;;12.85;7.65;;;;;;;;;;5060446;28;20021;-53
2022/02/24 07:29:42;;;;;;;11.13;7.68;;;;;;;;;;5016398;28;20044;-50
2022/02/24 07:32:09;;;;;;;15.45;8.32;;;22.50;76.60;;;;;;5031154;28;20045;-50
2022/02/24 07:34:34;;;;;;;15.68;8.25;;;23.80;75.20;;;;;;5005598;28;20435;-46
2022/02/24 07:37:01;;;;;;;12.43;8.02;;;;;;;;;;5063054;28;20032;-53
2022/02/24 07:39:27;;;;;;;12.25;8.48;;;25.10;79.50;;;;;;5073060;28;20035;-47
2022/02/24 07:41:53;;;;;;;16.50;8.75;;;;;;;;;;5003167;28;20036;-47
2022/02/24 07:44:19;;;;;;;13.45;8.00;;;;;;;;;;5070617;28;20063;-48
2022/02/24 07:46:45;;;;;;;14.82;8.63;;;;;;;;;;5017538;28;20136;-49
2022/02/24 07:49:11;;;;;;;14.82;8.80;;;27.70;69.50;;;;;;4996968;28;20405;-47
2022/02/24 07:51:37;;;;;;;11.15;7.93;;;27.60;69.90;;;;;;5063000;28;20025;-46
2022/02/24 07:54:03;;;;;;;15.18;7.45;;;;;;;;;;5064766;28;20036;-46
2022/02/24 07:56:30;;;;;;;11.23;7.03;;;27.90;88.70;;;;;;5069334;28;20131;-48
2022/02/24 07:58:55;;;;;;;15.90;8.18;;;26.80;68.80;;;;;;5075833;28;20115;-48
2022/02/24 08:01:23;;;;;;;13.20;9.38;;;26.80;68.80;;;;;;5067427;28;20124;-46
2022/02/24 08:03:50;;;;;;;14.75;9.70;;;26.20;68.30;;;;;;5064102;28;20111;-46
2022/02/24 08:06:18;;;;;;;10.88;8.15;;;;;;;;;;5067436;28;20441;-46
2022/02/24 08:08:43;;;;;;;13.70;10.02;;;27.00;98.60;;;;;;5060394;28;20453;-43
2022/02/24 08:11:09;;;;;;;20.17;17.20;;;;;;;;;;5056965;28;20031;-45
2022/02/24 08:13:35;;;;;;;13.35;9.82;;;27.30;66.60;;;;;;5065089;28;20028;-47
2022/02/24 08:16:01;;;;;;;12.20;9.05;;;27.60;67.10;;;;;;5019899;28;20057;-45
2022/02/24 08:18:27;;;;;;;5.57;4.07;;;;;;;;;;5065521;28;20021;-45
2022/02/24 08:20:53;;;;;;;8.38;4.57;;;;;;;;;;5071808;28;20020;-47
2022/02/24 08:23:19;;;;;;;13.45;6.00;;;;;;;;;;5072472;28;20060;-46
2022/02/24 08:25:45;;;;;;;38.28;26.83;;;;;;;;;;5066774;28;20052;-44
2022/02/24 08:28:11;;;;;;;7.43;5.88;;;27.40;62.80;;;;;;5045816;28;20132;-48
2022/02/24 08:30:37;;;;;;;13.50;9.50;;;25.80;64.90;;;;;;5069051;28;20159;-46
2022/02/24 08:33:04;;;;;;;12.43;7.63;;;26.50;64.00;;;;;;5022024;28;20105;-48
2022/02/24 08:35:29;;;;;;;11.23;6.82;;;26.70;64.20;;;;;;5070325;28;20043;-47
2022/02/24 08:37:59;;;;;;;9.75;6.50;;;27.40;64.10;;;;;;5019034;28;20044;-44
2022/02/24 08:40:24;;;;;;;9.68;5.53;;;27.40;64.60;;;;;;5070029;28;20032;-50
2022/02/24 08:42:51;;;;;;;8.32;5.25;;;27.50;63.70;;;;;;5044549;28;20046;-47
2022/02/24 08:45:19;;;;;;;10.75;6.20;;;27.20;63.90;;;;;;5061137;28;20037;-42
2022/02/24 08:47:45;;;;;;;9.95;6.30;;;;;;;;;;5047181;28;20091;-44
2022/02/24 08:50:12;;;;;;;6.85;4.82;;;26.90;62.40;;;;;;5064259;28;20028;-48
2022/02/24 08:52:38;;;;;;;10.88;5.85;;;25.80;62.70;;;;;;5067775;28;20032;-46
2022/02/24 08:55:04;;;;;;;7.70;4.50;;;24.50;62.80;;;;;;5033371;28;20529;-49
2022/02/24 08:57:30;;;;;;;9.95;5.53;;;25.00;64.20;;;;;;5030029;28;20091;-49
2022/02/24 08:59:56;;;;;;;9.85;5.03;;;25.70;63.10;;;;;;4965462;28;20044;-45
2022/02/24 09:02:22;;;;;;;9.65;5.38;;;26.40;63.30;;;;;;5070361;28;20029;-48
2022/02/24 09:04:48;;;;;;;8.75;6.03;;;;;;;;;;5068845;28;20103;-45
2022/02/24 09:07:14;;;;;;;7.95;5.80;;;26.90;62.30;;;;;;5065559;28;20033;-47
2022/02/24 09:09:40;;;;;;;11.90;6.32;;;26.70;80.40;;;;;;5019446;28;20036;-47
2022/02/24 09:12:06;;;;;;;13.05;11.18;;;26.30;62.00;;;;;;5009168;28;20372;-46
2022/02/24 09:14:32;;;;;;;9.13;6.35;;;26.80;63.00;;;;;;5013265;28;20511;-48
2022/02/24 09:16:58;;;;;;;7.28;5.85;;;;;;;;;;5068182;28;20071;-44
2022/02/24 09:19:24;;;;;;;6.70;5.57;;;26.50;61.70;;;;;;5066305;28;20024;-47
2022/02/24 09:21:50;;;;;;;10.57;5.75;;;26.20;62.80;;;;;;5060594;28;20032;-48
2022/02/24 09:24:15;;;;;;;7.80;5.80;;;26.80;62.20;;;;;;5064417;28;20079;-50
2022/02/24 09:26:42;;;;;;;11.15;5.63;;;27.40;62.80;;;;;;5068829;28;20029;-46
2022/02/24 09:29:08;;;;;;;11.65;5.75;;;27.80;61.60;;;;;;5066702;28;20036;-49
2022/02/24 09:31:35;;;;;;;15.60;5.25;;;27.60;68.30;;;;;;5062785;28;20381;-47
2022/02/24 09:34:01;;;;;;;10.75;7.88;;;26.90;62.00;;;;;;5063926;28;20032;-46
2022/02/24 09:36:27;;;;;;;7.20;3.90;;;27.60;61.60;;;;;;5062633;28;20106;-47
2022/02/24 09:38:53;;;;;;;11.40;5.68;;;25.90;61.10;;;;;;5071538;28;20033;-45
2022/02/24 09:41:23;;;;;;;7.63;4.80;;;26.20;61.10;;;;;;5062154;28;20040;-45
2022/02/24 09:43:49;;;;;;;7.22;5.32;;;;;;;;;;5066046;28;20037;-45
2022/02/24 09:46:15;;;;;;;8.43;4.88;;;;;;;;;;5068832;28;20033;-47
2022/02/24 09:48:42;;;;;;;8.57;5.03;;;26.90;60.00;;;;;;5070710;28;20021;-46
2022/02/24 09:51:11;;;;;;;8.75;6.50;;;27.40;60.50;;;;;;5061499;28;20052;-46
2022/02/24 09:53:38;;;;;;;9.45;5.20;;;27.40;60.50;;;;;;5061897;28;20488;-48
2022/02/24 09:56:05;;;;;;;8.98;6.55;;;;;;;;;;5065620;28;20032;-43
2022/02/24 09:58:34;;;;;;;7.47;5.60;;;;;;;;;;5038924;28;20037;-49
2022/02/24 10:01:02;;;;;;;9.30;5.18;;;27.20;87.30;;;;;;5058257;28;20023;-43
2022/02/24 10:03:32;;;;;;;6.82;4.63;;;27.80;60.20;;;;;;5068360;28;20460;-49
2022/02/24 10:06:00;;;;;;;9.55;4.80;;;;;;;;;;5059326;28;20029;-50
2022/02/24 10:08:39;;;;;;;8.00;4.70;;;27.50;61.70;;;;;;5057348;28;20033;-48
2022/02/24 10:11:16;;;;;;;7.63;4.80;;;;;;;;;;5058612;28;20492;-47
2022/02/24 10:14:03;;;;;;;6.72;4.57;;;26.50;60.10;;;;;;5065196;28;20480;-44
2022/02/24 10:16:29;;;;;;;7.65;6.00;;;26.30;61.00;;;;;;5069418;28;20135;-45
2022/02/24 10:18:56;;;;;;;12.45;11.38;;;26.80;60.70;;;;;;5031511;28;20090;-46
2022/02/24 10:21:22;;;;;;;13.93;6.30;;;26.00;58.50;;;;;;5061100;28;20065;-45
2022/02/24 10:23:49;;;;;;;9.30;4.70;;;26.60;60.60;;;;;;5056834;28;20059;-45
2022/02/24 10:26:17;;;;;;;9.18;8.13;;;26.20;58.20;;;;;;5000200;28;20045;-48
2022/02/24 10:28:51;;;;;;;8.18;5.50;;;;;;;;;;5025421;28;20052;-45
2022/02/24 10:31:23;;;;;;;7.50;5.18;;;26.50;56.70;;;;;;5034408;28;20124;-46
2022/02/24 10:33:52;;;;;;;8.80;6.30;;;26.90;58.20;;;;;;5003159;28;20038;-47
2022/02/24 10:36:24;;;;;;;5.95;4.70;;;27.20;57.90;;;;;;4982882;28;20049;-46
2022/02/24 10:39:05;;;;;;;6.20;4.00;;;;;;;;;;5011952;28;20061;-45
2022/02/24 10:41:33;;;;;;;8.87;6.77;;;27.60;57.10;;;;;;4999839;28;20186;-43
2022/02/24 10:44:26;;;;;;;6.22;5.60;;;27.80;56.60;;;;;;5005934;28;20277;-47
2022/02/24 10:47:12;;;;;;;13.63;12.73;;;26.00;57.30;;;;;;5008534;28;20030;-50
2022/02/24 10:49:41;;;;;;;6.03;4.30;;;27.30;56.50;;;;;;4965434;28;20048;-46
2022/02/24 10:52:21;;;;;;;6.75;5.72;;;27.30;56.30;;;;;;5004824;28;20036;-46
2022/02/24 10:55:15;;;;;;;7.78;4.93;;;25.90;56.60;;;;;;5011766;28;20026;-45
2022/02/24 10:57:42;;;;;;;9.05;5.03;;;26.60;57.00;;;;;;4957686;28;20047;-49
2022/02/24 11:00:08;;;;;;;6.95;4.10;;;26.60;57.60;;;;;;4957288;28;20034;-45
2022/02/24 11:02:34;;;;;;;7.90;6.53;;;26.50;57.80;;;;;;4957768;28;20043;-44
2022/02/24 11:05:01;;;;;;;6.05;4.47;;;26.00;57.70;;;;;;4988834;28;20512;-47
2022/02/24 11:07:28;;;;;;;6.28;4.40;;;24.10;58.50;;;;;;5001508;28;20038;-44
2022/02/24 11:09:57;;;;;;;8.05;4.40;;;25.50;57.80;;;;;;5006255;28;20500;-43
2022/02/24 11:12:28;;;;;;;8.50;5.72;;;26.10;58.40;;;;;;4967799;28;20042;-45
2022/02/24 11:14:56;;;;;;;6.38;4.45;;;25.90;57.30;;;;;;5001902;28;20034;-47
2022/02/24 11:17:22;;;;;;;6.68;3.78;;;24.50;57.70;;;;;;4995542;28;20126;-46
2022/02/24 11:19:48;;;;;;;7.60;6.07;;;24.60;57.40;;;;;;4997678;28;20030;-44
2022/02/24 11:22:13;;;;;;;6.63;4.03;;;24.40;56.60;;;;;;4995415;28;20177;-46
2022/02/24 11:24:40;;;;;;;9.38;6.80;;;23.50;58.00;;;;;;5000211;28;20493;-47
2022/02/24 11:27:27;;;;;;;5.63;3.92;;;23.30;57.70;;;;;;4976978;28;20038;-45
2022/02/24 11:30:10;;;;;;;7.10;4.22;;;23.50;58.10;;;;;;4997841;28;20123;-48
2022/02/24 11:32:36;;;;;;;13.00;5.28;;;24.40;58.60;;;;;;4994299;28;20049;-50
2022/02/24 11:35:07;;;;;;;5.57;3.45;;;24.40;57.50;;;;;;5012116;28;20040;-45
2022/02/24 11:37:42;;;;;;;4.38;3.38;;;24.10;58.40;;;;;;5068937;28;20037;-48
2022/02/24 11:40:32;;;;;;;5.95;3.45;;;24.20;57.40;;;;;;5064616;28;20044;-45
2022/02/24 11:43:04;;;;;;;6.53;3.95;;;24.20;58.80;;;;;;5070206;28;20068;-44
2022/02/24 11:45:50;;;;;;;6.78;4.28;;;24.20;57.80;;;;;;5068082;28;20031;-45
2022/02/24 11:48:21;;;;;;;6.43;3.92;;;24.60;59.00;;;;;;5070784;28;20033;-43
2022/02/24 11:50:56;;;;;;;5.07;3.90;;;24.50;58.60;;;;;;5068373;28;20027;-41
2022/02/24 11:53:30;;;;;;;10.18;4.57;;;24.80;57.90;;;;;;5068130;28;20040;-45
2022/02/24 11:55:59;;;;;;;5.75;3.20;;;24.80;57.70;;;;;;5063133;28;20105;-44
2022/02/24 11:58:41;;;;;;;5.90;3.47;;;25.00;58.00;;;;;;5028900;28;20373;-48
2022/02/24 12:01:27;;;;;;;3.92;3.10;;;24.30;57.20;;;;;;5072037;28;20032;-41
2022/02/24 12:03:55;;;;;;;4.95;2.78;;;23.40;58.80;;;;;;5016186;28;20047;-49
2022/02/24 12:06:41;;;;;;;5.90;2.83;;;22.40;58.90;;;;;;5026969;28;20573;-45
2022/02/24 12:09:22;;;;;;;3.85;2.35;;;20.00;60.90;;;;;;5064750;28;20032;-42
2022/02/24 12:11:51;;;;;;;6.57;2.30;;;20.10;62.50;;;;;;5073170;28;20032;-45
2022/02/24 12:14:20;;;;;;;4.40;2.10;;;20.40;61.40;;;;;;4969840;28;20122;-50
2022/02/24 12:17:00;;;;;;;4.95;2.33;;;19.80;60.00;;;;;;5011371;28;20054;-47
2022/02/24 12:19:53;;;;;;;5.28;2.63;;;20.70;61.10;;;;;;4989731;28;20073;-47
2022/02/24 12:22:43;;;;;;;4.38;1.85;;;21.60;61.20;;;;;;5007166;28;20037;-44
2022/02/24 12:25:20;;;;;;;4.70;2.08;;;19.80;59.70;;;;;;5000687;28;20084;-44
2022/02/24 12:28:04;;;;;;;3.45;2.13;;;19.40;60.80;;;;;;5007551;28;20026;-45
2022/02/24 12:30:38;;;;;;;6.18;2.60;;;19.90;59.90;;;;;;5007895;28;20034;-47
2022/02/24 12:33:15;;;;;;;10.75;2.47;;;20.10;60.90;;;;;;5009187;28;20099;-44
2022/02/24 12:35:50;;;;;;;3.58;1.88;;;21.20;61.30;;;;;;5004732;28;20438;-46
2022/02/24 12:38:18;;;;;;;5.13;1.90;;;21.00;59.50;;;;;;4995096;28;20057;-47
2022/02/24 12:40:47;;;;;;;4.45;2.00;;;19.40;59.80;;;;;;5000291;28;20526;-44
2022/02/24 12:43:15;;;;;;;5.03;2.15;;;19.10;60.70;;;;;;5012936;28;20512;-48
2022/02/24 12:45:42;;;;;;;3.78;1.95;;;19.60;60.90;;;;;;5048355;28;20041;-45
2022/02/24 12:48:10;;;;;;;4.80;2.20;;;19.80;60.60;;;;;;5056543;28;20028;-46
2022/02/24 12:50:42;;;;;;;4.43;2.20;;;20.20;61.00;;;;;;5015510;28;20041;-48
2022/02/24 12:53:11;;;;;;;4.78;1.90;;;20.50;61.00;;;;;;5010419;28;20033;-42
2022/02/24 12:55:38;;;;;;;3.70;2.03;;;20.90;62.60;;;;;;5071432;28;20035;-46
2022/02/24 12:58:12;;;;;;;4.75;1.80;;;20.00;60.00;;;;;;5064718;28;20041;-46
2022/02/24 13:00:42;;;;;;;4.28;1.80;;;20.40;61.80;;;;;;4979182;28;20488;-47